createdAt,value
2022-10-16T00:00:59.944Z,0.37
2022-10-16T00:03:30.298Z,0.50
2022-10-16T00:06:01.423Z,0.57
2022-10-16T00:08:29.268Z,0.33
2022-10-16T00:11:07.383Z,0.40
2022-10-16T00:13:35.112Z,0.30
2022-10-16T00:16:02.934Z,0.40
2022-10-16T00:18:30.485Z,0.30
2022-10-16T00:21:02.977Z,0.40
2022-10-16T00:23:30.385Z,0.40
2022-10-16T00:25:58.811Z,0.50
2022-10-16T00:28:26.690Z,0.40
2022-10-16T00:30:54.364Z,0.37
2022-10-16T00:33:21.893Z,0.40
2022-10-16T00:35:49.587Z,0.37
2022-10-16T00:38:16.954Z,0.50
2022-10-16T00:40:44.661Z,0.40
2022-10-16T00:43:35.065Z,0.40
2022-10-16T00:46:03.604Z,0.40
2022-10-16T00:48:31.073Z,0.40
2022-10-16T00:50:59.256Z,0.40
2022-10-16T00:53:27.252Z,0.43
2022-10-16T00:55:57.761Z,0.43
2022-10-16T00:58:25.138Z,0.50
2022-10-16T01:00:52.664Z,0.33
2022-10-16T01:03:36.853Z,0.40
2022-10-16T01:06:15.699Z,0.47
2022-10-16T01:09:00.263Z,0.33
2022-10-16T01:11:34.604Z,0.40
2022-10-16T01:14:04.378Z,0.30
2022-10-16T01:16:36.891Z,0.40
2022-10-16T01:19:11.341Z,0.40
2022-10-16T01:21:42.109Z,0.40
2022-10-16T01:24:12.400Z,0.40
2022-10-16T01:26:39.790Z,0.30
2022-10-16T01:29:07.254Z,0.30
2022-10-16T01:31:37.270Z,0.40
2022-10-16T01:34:07.081Z,0.40
2022-10-16T01:37:03.533Z,0.50
2022-10-16T01:39:32.998Z,0.30
2022-10-16T01:42:17.247Z,0.40
2022-10-16T01:44:45.494Z,0.50
2022-10-16T01:47:14.908Z,0.40
2022-10-16T01:49:42.852Z,0.50
2022-10-16T01:52:12.754Z,0.30
2022-10-16T01:54:42.625Z,0.30
2022-10-16T01:57:10.294Z,0.30
2022-10-16T01:59:39.068Z,0.40
2022-10-16T02:02:09.208Z,0.40
2022-10-16T02:04:40.028Z,0.33
2022-10-16T02:07:07.766Z,0.40
2022-10-16T02:09:35.958Z,0.43
2022-10-16T02:12:07.121Z,0.50
2022-10-16T02:14:34.464Z,0.30
2022-10-16T02:17:01.884Z,0.40
2022-10-16T02:19:32.491Z,0.43
2022-10-16T02:22:02.574Z,0.30
2022-10-16T02:24:40.949Z,0.50
2022-10-16T02:27:26.738Z,0.40
2022-10-16T02:30:01.548Z,0.40
2022-10-16T02:32:31.853Z,0.30
2022-10-16T02:35:00.588Z,0.67
2022-10-16T02:37:28.635Z,0.40
2022-10-16T02:39:56.827Z,0.30
2022-10-16T02:42:29.438Z,0.50
2022-10-16T02:44:56.856Z,0.60
2022-10-16T02:47:24.253Z,0.40
2022-10-16T02:49:51.592Z,0.50
2022-10-16T02:52:19.014Z,0.40
2022-10-16T02:54:46.414Z,0.30
2022-10-16T02:57:13.835Z,0.30
2022-10-16T02:59:41.233Z,0.60
2022-10-16T03:02:08.683Z,0.50
2022-10-16T03:04:36.098Z,0.60
2022-10-16T03:07:03.658Z,0.70
2022-10-16T03:09:31.245Z,0.60
2022-10-16T03:11:58.742Z,0.40
2022-10-16T03:14:26.075Z,0.40
2022-10-16T03:16:53.607Z,0.50
2022-10-16T03:19:21.013Z,0.50
2022-10-16T03:21:48.447Z,0.30
2022-10-16T03:24:15.976Z,0.53
2022-10-16T03:26:43.458Z,0.70
2022-10-16T03:29:10.865Z,0.50
2022-10-16T03:31:41.969Z,0.60
2022-10-16T03:34:09.414Z,0.30
2022-10-16T03:36:36.754Z,0.30
2022-10-16T03:39:04.426Z,0.33
2022-10-16T03:41:31.885Z,0.30
2022-10-16T03:43:59.259Z,0.40
2022-10-16T03:46:26.722Z,0.40
2022-10-16T03:48:54.153Z,0.50
2022-10-16T03:51:24.704Z,0.60
2022-10-16T03:53:52.368Z,0.40
2022-10-16T03:56:19.763Z,0.50
2022-10-16T03:58:47.142Z,0.50
2022-10-16T04:01:14.619Z,0.50
2022-10-16T04:03:42.231Z,0.53
2022-10-16T04:06:09.964Z,0.40
2022-10-16T04:08:37.739Z,0.40
2022-10-16T04:11:05.430Z,0.47
2022-10-16T04:13:32.797Z,0.33
2022-10-16T04:16:00.119Z,0.30
2022-10-16T04:18:28.403Z,0.43
2022-10-16T04:20:56.234Z,0.60
2022-10-16T04:23:24.614Z,0.40
2022-10-16T04:25:52.523Z,0.50
2022-10-16T04:28:19.909Z,0.47
2022-10-16T04:30:47.267Z,0.50
2022-10-16T04:33:14.650Z,0.93
2022-10-16T04:35:41.998Z,0.60
2022-10-16T04:38:09.398Z,0.50
2022-10-16T04:40:37.698Z,0.70
2022-10-16T04:43:05.804Z,0.50
2022-10-16T04:45:33.220Z,0.50
2022-10-16T04:48:01.197Z,0.53
2022-10-16T04:50:28.794Z,0.50
2022-10-16T04:52:56.210Z,0.40
2022-10-16T04:55:23.676Z,0.50
2022-10-16T04:57:51.108Z,0.70
2022-10-16T05:00:18.596Z,0.50
2022-10-16T05:02:46.076Z,0.40
2022-10-16T05:05:13.848Z,0.40
2022-10-16T05:07:43.983Z,0.50
2022-10-16T05:10:11.424Z,0.40
2022-10-16T05:12:38.816Z,0.60
2022-10-16T05:15:06.481Z,0.40
2022-10-16T05:17:33.933Z,0.40
2022-10-16T05:20:01.357Z,0.50
2022-10-16T05:22:28.637Z,0.77
2022-10-16T05:24:56.122Z,0.50
2022-10-16T05:27:23.690Z,0.70
2022-10-16T05:29:51.314Z,0.30
2022-10-16T05:32:19.408Z,0.40
2022-10-16T05:34:47.302Z,0.80
2022-10-16T05:37:14.983Z,0.60
2022-10-16T05:39:45.166Z,0.77
2022-10-16T05:42:12.518Z,0.50
2022-10-16T05:44:40.088Z,0.60
2022-10-16T05:47:07.593Z,0.90
2022-10-16T05:49:37.877Z,0.50
2022-10-16T05:52:08.062Z,0.77
2022-10-16T05:54:35.412Z,0.60
2022-10-16T05:57:03.188Z,0.70
2022-10-16T05:59:30.551Z,0.70
2022-10-16T06:01:58.004Z,0.60
2022-10-16T06:04:25.443Z,0.60
2022-10-16T06:06:52.927Z,0.50
2022-10-16T06:09:20.250Z,0.60
2022-10-16T06:11:47.675Z,1.03
2022-10-16T06:14:15.070Z,0.70
2022-10-16T06:16:42.412Z,0.60
2022-10-16T06:19:10.423Z,0.60
2022-10-16T06:21:37.962Z,0.70
2022-10-16T06:24:05.466Z,0.70
2022-10-16T06:26:33.255Z,0.63
2022-10-16T06:29:01.232Z,0.50
2022-10-16T06:31:31.780Z,0.80
2022-10-16T06:33:59.441Z,0.70
2022-10-16T06:36:27.177Z,0.70
2022-10-16T06:38:54.630Z,0.90
2022-10-16T06:41:23.257Z,0.60
2022-10-16T06:43:50.731Z,0.77
2022-10-16T06:46:19.735Z,1.50
2022-10-16T06:48:47.194Z,2.17
2022-10-16T06:51:16.378Z,1.17
2022-10-16T06:54:02.243Z,0.90
2022-10-16T06:56:33.728Z,0.77
2022-10-16T06:59:01.190Z,0.80
2022-10-16T07:01:29.269Z,0.60
2022-10-16T07:03:56.745Z,0.50
2022-10-16T07:06:25.424Z,1.13
2022-10-16T07:08:53.302Z,0.63
2022-10-16T07:11:21.903Z,0.67
2022-10-16T07:13:56.099Z,0.90
2022-10-16T07:16:30.524Z,1.03
2022-10-16T07:19:01.985Z,0.60
2022-10-16T07:21:30.809Z,0.90
2022-10-16T07:23:59.826Z,0.70
2022-10-16T07:26:27.844Z,0.70
2022-10-16T07:28:55.443Z,0.60
2022-10-16T07:31:23.624Z,0.70
2022-10-16T07:33:51.766Z,0.90
2022-10-16T07:36:20.023Z,0.70
2022-10-16T07:38:47.494Z,0.70
2022-10-16T07:41:16.473Z,0.70
2022-10-16T07:43:47.706Z,0.70
2022-10-16T07:46:15.651Z,0.60
2022-10-16T07:48:46.704Z,0.60
2022-10-16T07:51:15.454Z,0.60
2022-10-16T07:53:42.899Z,0.57
2022-10-16T07:56:10.652Z,0.60
2022-10-16T07:58:38.335Z,0.70
2022-10-16T08:01:07.058Z,0.70
2022-10-16T08:03:34.695Z,0.83
2022-10-16T08:06:02.764Z,0.70
2022-10-16T08:08:30.518Z,0.70
2022-10-16T08:10:57.964Z,0.60
2022-10-16T08:13:25.331Z,0.80
2022-10-16T08:15:52.783Z,2.60
2022-10-16T08:18:20.138Z,2.07
2022-10-16T08:20:47.441Z,1.15
2022-10-16T08:23:15.134Z,1.83
2022-10-16T08:25:43.203Z,1.75
2022-10-16T08:28:12.358Z,1.27
2022-10-16T08:30:39.983Z,0.73
2022-10-16T08:33:07.622Z,0.80
2022-10-16T08:35:35.272Z,0.52
2022-10-16T08:38:04.691Z,0.90
2022-10-16T08:40:33.727Z,0.60
2022-10-16T08:43:08.578Z,0.77
2022-10-16T08:45:59.226Z,0.75
2022-10-16T08:48:45.341Z,0.60
2022-10-16T08:51:19.797Z,0.55
2022-10-16T08:53:50.416Z,0.55
2022-10-16T08:56:19.587Z,0.80
2022-10-16T09:01:24.461Z,0.70
2022-10-16T09:04:04.430Z,0.90
2022-10-16T09:06:43.680Z,0.52
2022-10-16T09:09:19.897Z,0.60
2022-10-16T09:11:54.003Z,0.70
2022-10-16T09:14:53.711Z,0.70
2022-10-16T09:17:40.395Z,0.65
2022-10-16T09:20:20.822Z,0.85
2022-10-16T09:22:48.313Z,0.68
2022-10-16T09:25:17.285Z,0.88
2022-10-16T09:27:49.882Z,1.00
2022-10-16T09:30:19.232Z,0.70
2022-10-16T09:32:47.838Z,0.90
2022-10-16T09:35:17.426Z,0.70
2022-10-16T09:37:46.547Z,0.90
2022-10-16T09:40:14.745Z,0.70
2022-10-16T09:42:42.205Z,0.70
2022-10-16T09:45:22.025Z,0.80
2022-10-16T09:47:55.500Z,0.70
2022-10-16T09:50:27.505Z,0.70
2022-10-16T09:53:07.827Z,0.70
2022-10-16T09:55:35.325Z,0.60
2022-10-16T09:58:02.677Z,0.73
2022-10-16T10:00:31.124Z,1.10
2022-10-16T10:02:58.605Z,0.70
2022-10-16T10:05:29.933Z,0.88
2022-10-16T10:07:57.322Z,0.80
2022-10-16T10:10:28.681Z,1.05
2022-10-16T10:12:56.486Z,0.98
2022-10-16T10:15:25.163Z,0.88
2022-10-16T10:17:53.892Z,0.90
2022-10-16T10:20:27.497Z,1.00
2022-10-16T10:22:56.711Z,0.88
2022-10-16T10:25:26.922Z,0.80
2022-10-16T10:27:57.168Z,1.17
2022-10-16T10:30:45.827Z,1.10
2022-10-16T10:33:28.582Z,0.90
2022-10-16T10:36:08.126Z,0.90
2022-10-16T10:38:47.692Z,0.90
2022-10-16T10:41:33.755Z,1.00
2022-10-16T10:44:16.126Z,1.00
2022-10-16T10:46:53.867Z,0.90
2022-10-16T10:49:30.582Z,0.90
2022-10-16T10:52:11.028Z,0.73
2022-10-16T10:54:52.307Z,0.70
2022-10-16T10:57:38.365Z,0.98
2022-10-16T11:00:16.963Z,0.73
2022-10-16T11:03:04.593Z,0.70
2022-10-16T11:05:42.712Z,0.90
2022-10-16T11:08:30.345Z,0.93
2022-10-16T11:11:03.479Z,0.90
2022-10-16T11:13:48.855Z,0.80
2022-10-16T11:16:39.571Z,0.80
2022-10-16T11:19:14.293Z,0.85
2022-10-16T11:21:45.085Z,1.27
2022-10-16T11:24:31.962Z,1.10
2022-10-16T11:27:03.562Z,1.10
2022-10-16T11:29:32.488Z,1.00
2022-10-16T11:32:07.333Z,1.17
2022-10-16T11:34:40.853Z,1.10
2022-10-16T11:37:21.184Z,1.38
2022-10-16T11:39:51.164Z,1.10
2022-10-16T11:42:28.276Z,1.40
2022-10-16T11:44:59.468Z,1.10
2022-10-16T11:50:35.372Z,1.15
2022-10-16T11:53:05.701Z,1.42
2022-10-16T11:55:36.153Z,1.40
2022-10-16T11:58:10.157Z,2.28
2022-10-16T12:00:53.331Z,3.00
2022-10-16T12:03:23.858Z,1.30
2022-10-16T12:05:54.284Z,1.20
2022-10-16T12:08:21.759Z,1.42
2022-10-16T12:10:49.844Z,1.38
2022-10-16T12:13:35.632Z,1.10
2022-10-16T12:16:06.740Z,1.35
2022-10-16T12:18:34.395Z,1.40
2022-10-16T12:21:07.043Z,1.42
2022-10-16T12:23:35.425Z,1.30
2022-10-16T12:26:03.830Z,1.15
2022-10-16T12:28:32.926Z,1.20
2022-10-16T12:31:00.348Z,1.30
2022-10-16T12:33:31.974Z,1.30
2022-10-16T12:36:00.339Z,1.40
2022-10-16T12:38:29.433Z,1.30
2022-10-16T12:41:04.642Z,1.30
2022-10-16T12:43:41.075Z,1.48
2022-10-16T12:46:11.491Z,1.15
2022-10-16T12:48:48.880Z,1.30
2022-10-16T12:51:35.613Z,1.10
2022-10-16T12:54:05.912Z,1.20
2022-10-16T12:56:51.371Z,1.23
2022-10-16T12:59:18.845Z,1.00
2022-10-16T13:02:04.698Z,1.40
2022-10-16T13:04:45.536Z,1.10
2022-10-16T13:07:15.927Z,1.70
2022-10-16T13:09:46.450Z,1.20
2022-10-16T13:12:14.577Z,1.20
2022-10-16T13:14:49.648Z,1.20
2022-10-16T13:17:37.422Z,1.40
2022-10-16T13:20:13.402Z,1.50
2022-10-16T13:22:46.680Z,1.30
2022-10-16T13:25:22.816Z,1.30
2022-10-16T13:27:50.114Z,1.20
2022-10-16T13:30:19.678Z,1.65
2022-10-16T13:32:48.398Z,1.45
2022-10-16T13:35:23.925Z,1.20
2022-10-16T13:37:51.671Z,1.45
2022-10-16T13:40:21.768Z,1.55
2022-10-16T13:42:49.194Z,1.65
2022-10-16T13:45:20.703Z,1.70
2022-10-16T13:47:48.253Z,1.70
2022-10-16T13:50:17.333Z,1.58
2022-10-16T13:53:06.715Z,1.60
2022-10-16T13:55:34.264Z,1.55
2022-10-16T13:58:14.295Z,1.70
2022-10-16T14:00:41.934Z,1.60
2022-10-16T14:03:14.854Z,1.83
2022-10-16T14:05:49.582Z,1.38
2022-10-16T14:08:17.174Z,1.50
2022-10-16T14:10:44.762Z,1.50
2022-10-16T14:13:16.475Z,1.58
2022-10-16T14:15:48.236Z,1.67
2022-10-16T14:18:20.674Z,1.90
2022-10-16T14:20:48.377Z,1.88
2022-10-16T14:23:41.976Z,1.60
2022-10-16T14:26:09.314Z,1.50
2022-10-16T14:28:37.484Z,1.40
2022-10-16T14:31:19.493Z,1.60
2022-10-16T14:33:46.854Z,2.10
2022-10-16T14:36:15.859Z,1.70
2022-10-16T14:38:44.914Z,1.90
2022-10-16T14:41:12.355Z,1.67
2022-10-16T14:43:41.215Z,1.80
2022-10-16T14:46:14.797Z,2.15
2022-10-16T14:48:46.575Z,2.10
2022-10-16T14:51:15.958Z,1.83
2022-10-16T14:53:43.294Z,1.77
2022-10-16T14:56:16.396Z,1.80
2022-10-16T14:58:43.875Z,1.77
2022-10-16T15:01:12.736Z,2.03
2022-10-16T15:03:40.580Z,2.00
2022-10-16T15:06:12.995Z,1.75
2022-10-16T15:08:40.474Z,1.90
2022-10-16T15:11:12.054Z,1.77
2022-10-16T15:13:39.494Z,1.88
2022-10-16T15:16:07.033Z,1.90
2022-10-16T15:18:34.400Z,2.38
2022-10-16T15:21:01.740Z,2.45
2022-10-16T15:23:29.441Z,2.35
2022-10-16T15:25:58.099Z,2.17
2022-10-16T15:28:26.982Z,2.25
2022-10-16T15:30:55.840Z,2.17
2022-10-16T15:33:24.497Z,2.00
2022-10-16T15:35:52.618Z,1.92
2022-10-16T15:38:21.023Z,2.85
2022-10-16T15:40:49.045Z,1.95
2022-10-16T15:43:16.545Z,1.98
2022-10-16T15:45:44.051Z,2.17
2022-10-16T15:48:14.944Z,2.25
2022-10-16T15:53:11.881Z,2.20
2022-10-16T15:55:39.654Z,2.35
2022-10-16T15:58:07.076Z,2.00
2022-10-16T16:00:34.440Z,2.65
2022-10-16T16:03:01.868Z,2.30
2022-10-16T16:05:29.313Z,2.20
2022-10-16T16:08:00.074Z,2.65
2022-10-16T16:10:27.575Z,2.22
2022-10-16T16:12:55.049Z,2.40
2022-10-16T16:15:23.182Z,2.17
2022-10-16T16:17:50.933Z,2.45
2022-10-16T16:20:18.385Z,2.40
2022-10-16T16:22:45.776Z,2.33
2022-10-16T16:25:13.175Z,2.60
2022-10-16T16:27:40.689Z,2.40
2022-10-16T16:30:09.020Z,2.15
2022-10-16T16:32:36.853Z,2.20
2022-10-16T16:35:05.074Z,2.20
2022-10-16T16:37:32.613Z,1.85
2022-10-16T16:40:03.451Z,2.35
2022-10-16T16:42:30.800Z,2.40
2022-10-16T16:44:58.255Z,2.60
2022-10-16T16:47:26.084Z,2.35
2022-10-16T16:49:53.781Z,2.08
2022-10-16T16:52:21.202Z,2.30
2022-10-16T16:54:52.941Z,2.10
2022-10-16T16:57:21.502Z,2.55
2022-10-16T16:59:48.962Z,3.17
2022-10-16T17:02:16.357Z,2.35
2022-10-16T17:04:43.783Z,2.28
2022-10-16T17:07:11.248Z,2.38
2022-10-16T17:09:38.620Z,2.17
2022-10-16T17:12:06.169Z,2.10
2022-10-16T17:14:33.572Z,2.38
2022-10-16T17:17:00.985Z,2.40
2022-10-16T17:19:28.382Z,2.45
2022-10-16T17:24:30.382Z,2.33
2022-10-16T17:26:58.265Z,2.72
2022-10-16T17:29:25.703Z,2.40
2022-10-16T17:31:53.206Z,2.50
2022-10-16T17:34:20.582Z,3.10
2022-10-16T17:36:48.280Z,2.50
2022-10-16T17:39:18.010Z,2.63
2022-10-16T17:41:46.088Z,2.28
2022-10-16T17:44:19.898Z,2.20
2022-10-16T17:46:51.606Z,2.50
2022-10-16T17:49:19.494Z,2.45
2022-10-16T17:51:47.101Z,2.50
2022-10-16T17:54:14.990Z,2.53
2022-10-16T17:56:42.470Z,2.40
2022-10-16T17:59:11.252Z,3.20
2022-10-16T18:01:40.912Z,3.05
2022-10-16T18:04:09.982Z,2.95
2022-10-16T18:06:37.943Z,2.83
2022-10-16T18:09:05.864Z,2.40
2022-10-16T18:11:33.167Z,2.55
2022-10-16T18:14:00.910Z,2.60
2022-10-16T18:16:29.138Z,2.50
2022-10-16T18:19:00.007Z,2.80
2022-10-16T18:21:28.143Z,2.67
2022-10-16T18:23:55.765Z,3.00
2022-10-16T18:26:23.298Z,2.70
2022-10-16T18:28:53.326Z,2.50
2022-10-16T18:31:20.944Z,2.95
2022-10-16T18:33:50.570Z,2.42
2022-10-16T18:36:22.283Z,2.17
2022-10-16T18:38:49.723Z,2.00
2022-10-16T18:41:17.526Z,2.63
2022-10-16T18:43:44.903Z,2.40
2022-10-16T18:46:13.963Z,2.30
2022-10-16T18:48:41.444Z,2.42
2022-10-16T18:51:12.190Z,2.80
2022-10-16T18:53:40.505Z,2.65
2022-10-16T18:56:08.003Z,3.30
2022-10-16T18:58:39.402Z,2.75
2022-10-16T19:01:07.824Z,3.03
2022-10-16T19:03:35.618Z,2.65
2022-10-16T19:06:08.463Z,2.95
2022-10-16T19:08:38.985Z,2.85
2022-10-16T19:11:07.622Z,2.80
2022-10-16T19:13:35.124Z,2.50
2022-10-16T19:16:19.963Z,2.35
2022-10-16T19:18:48.409Z,2.75
2022-10-16T19:21:16.619Z,2.28
2022-10-16T19:23:43.964Z,3.10
2022-10-16T19:26:15.507Z,2.90
2022-10-16T19:28:43.729Z,2.20
2022-10-16T19:31:12.864Z,2.33
2022-10-16T19:33:40.807Z,2.60
2022-10-16T19:36:15.863Z,2.47
2022-10-16T19:38:43.243Z,2.30
2022-10-16T19:41:11.543Z,2.97
2022-10-16T19:43:38.962Z,2.08
2022-10-16T19:46:07.323Z,2.65
2022-10-16T19:48:35.062Z,2.60
2022-10-16T19:51:02.722Z,3.07
2022-10-16T19:53:30.687Z,2.67
2022-10-16T19:55:58.502Z,2.90
2022-10-16T19:58:26.062Z,2.70
2022-10-16T20:00:54.806Z,2.43
2022-10-16T20:03:22.500Z,2.63
2022-10-16T20:05:53.811Z,2.30
2022-10-16T20:08:21.432Z,2.10
2022-10-16T20:10:49.979Z,2.80
2022-10-16T20:13:17.312Z,2.60
2022-10-16T20:15:44.673Z,2.93
2022-10-16T20:18:12.092Z,2.87
2022-10-16T20:20:40.193Z,2.42
2022-10-16T20:23:07.982Z,2.58
2022-10-16T20:25:39.194Z,2.38
2022-10-16T20:28:07.012Z,2.60
2022-10-16T20:30:38.472Z,2.47
2022-10-16T20:33:08.564Z,2.38
2022-10-16T20:35:42.932Z,2.90
2022-10-16T20:38:11.012Z,2.10
2022-10-16T20:40:40.062Z,2.53
2022-10-16T20:43:07.856Z,2.77
2022-10-16T20:45:35.252Z,2.70
2022-10-16T20:48:04.876Z,2.27
2022-10-16T20:50:32.892Z,2.20
2022-10-16T20:53:00.562Z,2.67
2022-10-16T20:55:28.571Z,2.30
2022-10-16T20:57:56.176Z,2.53
2022-10-16T21:00:24.251Z,2.40
2022-10-16T21:02:52.032Z,2.60
2022-10-16T21:05:19.715Z,2.40
2022-10-16T21:07:47.394Z,2.20
2022-10-16T21:10:14.901Z,2.80
2022-10-16T21:12:42.307Z,2.13
2022-10-16T21:15:14.777Z,2.33
2022-10-16T21:17:43.093Z,2.33
2022-10-16T21:20:10.618Z,2.97
2022-10-16T21:22:38.042Z,2.50
2022-10-16T21:25:06.041Z,3.43
2022-10-16T21:27:40.761Z,2.63
2022-10-16T21:30:09.473Z,2.70
2022-10-16T21:32:37.621Z,2.60
2022-10-16T21:35:05.743Z,2.70
2022-10-16T21:37:33.288Z,2.50
2022-10-16T21:40:00.642Z,2.70
2022-10-16T21:42:28.444Z,2.63
2022-10-16T21:44:56.180Z,2.27
2022-10-16T21:47:23.581Z,2.30
2022-10-16T21:49:50.961Z,2.80
2022-10-16T21:52:18.321Z,2.70
2022-10-16T21:54:45.681Z,2.70
2022-10-16T21:57:12.951Z,2.70
2022-10-16T21:59:40.279Z,2.50
2022-10-16T22:02:07.804Z,2.50
2022-10-16T22:04:35.183Z,2.40
2022-10-16T22:07:02.575Z,2.80
2022-10-16T22:09:29.909Z,2.30
2022-10-16T22:11:57.186Z,2.40
2022-10-16T22:14:24.742Z,2.40
2022-10-16T22:16:52.284Z,2.40
2022-10-16T22:19:22.037Z,2.27
2022-10-16T22:21:53.023Z,2.60
2022-10-16T22:24:20.348Z,2.57
2022-10-16T22:26:48.683Z,2.40
2022-10-16T22:29:16.254Z,2.23
2022-10-16T22:31:44.300Z,2.20
2022-10-16T22:34:12.695Z,2.47
2022-10-16T22:36:40.200Z,2.20
2022-10-16T22:39:07.609Z,2.00
2022-10-16T22:41:34.986Z,2.43
2022-10-16T22:44:02.395Z,2.07
2022-10-16T22:46:30.700Z,2.20
2022-10-16T22:48:58.503Z,2.60
2022-10-16T22:51:26.813Z,2.63
2022-10-16T22:53:54.167Z,2.40
2022-10-16T22:56:22.096Z,2.17
2022-10-16T22:58:49.481Z,2.30
2022-10-16T23:01:25.597Z,2.47
2022-10-16T23:03:52.888Z,2.47
2022-10-16T23:06:20.206Z,2.10
2022-10-16T23:08:51.642Z,2.33
2022-10-16T23:11:18.957Z,2.13
2022-10-16T23:13:46.307Z,2.40
2022-10-16T23:16:15.532Z,2.70
2022-10-16T23:18:43.227Z,2.43
2022-10-16T23:21:16.037Z,2.50
2022-10-16T23:23:44.307Z,2.37
2022-10-16T23:26:21.762Z,2.60
2022-10-16T23:28:49.224Z,2.37
2022-10-16T23:31:17.486Z,2.40
2022-10-16T23:33:44.924Z,2.63
2022-10-16T23:36:13.644Z,2.50
2022-10-16T23:38:41.080Z,2.67
2022-10-16T23:41:08.367Z,2.00
2022-10-16T23:43:35.911Z,2.43
2022-10-16T23:46:03.471Z,2.40
2022-10-16T23:48:34.157Z,2.23
2022-10-16T23:51:01.667Z,2.50
2022-10-16T23:53:28.955Z,2.30
2022-10-16T23:55:56.295Z,2.30
2022-10-16T23:58:23.593Z,2.23
